sensor_id;sensor_type;location;lat;lon;timestamp;P1;durP1;ratioP1;P2;durP2;ratioP2
64361;SDS011;50685;53.346;-6.296;2023-04-15T00:00:36;11.85;;;1.58;;
64361;SDS011;50685;53.346;-6.296;2023-04-15T00:03:01;7.18;;;2.35;;
64361;SDS011;50685;53.346;-6.296;2023-04-15T00:05:31;5.90;;;1.33;;
64361;SDS011;50685;53.346;-6.296;2023-04-15T00:07:56;10.57;;;1.83;;
64361;SDS011;50685;53.346;-6.296;2023-04-15T00:10:23;8.13;;;1.80;;
64361;SDS011;50685;53.346;-6.296;2023-04-15T00:12:49;8.18;;;3.97;;
64361;SDS011;50685;53.346;-6.296;2023-04-15T00:15:15;5.07;;;1.40;;
64361;SDS011;50685;53.346;-6.296;2023-04-15T00:17:40;7.65;;;2.42;;
64361;SDS011;50685;53.346;-6.296;2023-04-15T00:20:06;6.03;;;1.63;;
64361;SDS011;50685;53.346;-6.296;2023-04-15T00:22:32;9.70;;;2.97;;
64361;SDS011;50685;53.346;-6.296;2023-04-15T00:24:57;3.95;;;1.50;;
64361;SDS011;50685;53.346;-6.296;2023-04-15T00:27:23;7.20;;;2.00;;
64361;SDS011;50685;53.346;-6.296;2023-04-15T00:29:48;5.47;;;1.85;;
64361;SDS011;50685;53.346;-6.296;2023-04-15T00:32:14;8.95;;;1.75;;
64361;SDS011;50685;53.346;-6.296;2023-04-15T00:34:40;10.88;;;1.98;;
64361;SDS011;50685;53.346;-6.296;2023-04-15T00:37:05;6.80;;;1.63;;
64361;SDS011;50685;53.346;-6.296;2023-04-15T00:39:31;5.03;;;2.08;;
64361;SDS011;50685;53.346;-6.296;2023-04-15T00:41:56;6.15;;;2.00;;
64361;SDS011;50685;53.346;-6.296;2023-04-15T00:44:22;6.72;;;2.10;;
64361;SDS011;50685;53.346;-6.296;2023-04-15T00:46:49;3.05;;;1.70;;
64361;SDS011;50685;53.346;-6.296;2023-04-15T00:49:15;6.60;;;1.65;;
64361;SDS011;50685;53.346;-6.296;2023-04-15T00:51:42;6.88;;;1.80;;
64361;SDS011;50685;53.346;-6.296;2023-04-15T00:54:08;6.75;;;1.92;;
64361;SDS011;50685;53.346;-6.296;2023-04-15T00:56:35;8.23;;;2.28;;
64361;SDS011;50685;53.346;-6.296;2023-04-15T00:59:02;6.93;;;1.77;;
64361;SDS011;50685;53.346;-6.296;2023-04-15T01:01:30;8.25;;;2.05;;
64361;SDS011;50685;53.346;-6.296;2023-04-15T01:03:59;6.10;;;1.65;;
64361;SDS011;50685;53.346;-6.296;2023-04-15T01:06:25;3.70;;;1.80;;
64361;SDS011;50685;53.346;-6.296;2023-04-15T01:08:51;8.52;;;2.00;;
64361;SDS011;50685;53.346;-6.296;2023-04-15T01:11:18;9.80;;;2.03;;
64361;SDS011;50685;53.346;-6.296;2023-04-15T01:13:45;7.32;;;1.33;;
64361;SDS011;50685;53.346;-6.296;2023-04-15T01:16:11;6.50;;;2.33;;
64361;SDS011;50685;53.346;-6.296;2023-04-15T01:18:38;4.10;;;1.98;;
64361;SDS011;50685;53.346;-6.296;2023-04-15T01:21:04;6.88;;;2.80;;
64361;SDS011;50685;53.346;-6.296;2023-04-15T01:23:31;10.82;;;2.65;;
64361;SDS011;50685;53.346;-6.296;2023-04-15T01:25:57;10.68;;;2.10;;
64361;SDS011;50685;53.346;-6.296;2023-04-15T01:28:23;10.88;;;2.25;;
64361;SDS011;50685;53.346;-6.296;2023-04-15T01:30:50;19.75;;;3.45;;
64361;SDS011;50685;53.346;-6.296;2023-04-15T01:33:29;6.82;;;2.08;;
64361;SDS011;50685;53.346;-6.296;2023-04-15T01:35:55;14.25;;;2.50;;
64361;SDS011;50685;53.346;-6.296;2023-04-15T01:38:21;7.50;;;2.20;;
64361;SDS011;50685;53.346;-6.296;2023-04-15T01:40:46;6.25;;;2.28;;
64361;SDS011;50685;53.346;-6.296;2023-04-15T01:43:12;7.20;;;2.60;;
64361;SDS011;50685;53.346;-6.296;2023-04-15T01:45:37;8.88;;;1.88;;
64361;SDS011;50685;53.346;-6.296;2023-04-15T01:48:03;7.55;;;1.50;;
64361;SDS011;50685;53.346;-6.296;2023-04-15T01:50:28;12.93;;;2.33;;
64361;SDS011;50685;53.346;-6.296;2023-04-15T01:52:54;6.70;;;1.70;;
64361;SDS011;50685;53.346;-6.296;2023-04-15T01:55:19;10.48;;;2.67;;
64361;SDS011;50685;53.346;-6.296;2023-04-15T01:57:45;7.72;;;2.22;;
64361;SDS011;50685;53.346;-6.296;2023-04-15T02:00:11;11.65;;;2.97;;
64361;SDS011;50685;53.346;-6.296;2023-04-15T02:02:37;6.72;;;1.88;;
64361;SDS011;50685;53.346;-6.296;2023-04-15T02:05:02;5.00;;;1.80;;
64361;SDS011;50685;53.346;-6.296;2023-04-15T02:07:28;9.13;;;1.88;;
64361;SDS011;50685;53.346;-6.296;2023-04-15T02:09:56;4.40;;;2.08;;
64361;SDS011;50685;53.346;-6.296;2023-04-15T02:12:21;16.65;;;3.13;;
64361;SDS011;50685;53.346;-6.296;2023-04-15T02:14:47;11.45;;;1.83;;
64361;SDS011;50685;53.346;-6.296;2023-04-15T02:17:12;8.30;;;2.13;;
64361;SDS011;50685;53.346;-6.296;2023-04-15T02:19:38;5.32;;;1.33;;
64361;SDS011;50685;53.346;-6.296;2023-04-15T02:22:04;7.90;;;1.85;;
64361;SDS011;50685;53.346;-6.296;2023-04-15T02:24:31;12.15;;;2.05;;
64361;SDS011;50685;53.346;-6.296;2023-04-15T02:26:57;8.63;;;2.10;;
64361;SDS011;50685;53.346;-6.296;2023-04-15T02:29:23;5.57;;;1.98;;
64361;SDS011;50685;53.346;-6.296;2023-04-15T02:31:48;4.63;;;1.70;;
64361;SDS011;50685;53.346;-6.296;2023-04-15T02:34:14;8.20;;;2.05;;
64361;SDS011;50685;53.346;-6.296;2023-04-15T02:36:39;8.18;;;1.77;;
64361;SDS011;50685;53.346;-6.296;2023-04-15T02:39:05;7.75;;;1.80;;
64361;SDS011;50685;53.346;-6.296;2023-04-15T02:41:30;5.07;;;1.42;;
64361;SDS011;50685;53.346;-6.296;2023-04-15T02:43:56;6.93;;;1.83;;
64361;SDS011;50685;53.346;-6.296;2023-04-15T02:46:21;7.90;;;2.25;;
64361;SDS011;50685;53.346;-6.296;2023-04-15T02:48:47;14.98;;;2.03;;
64361;SDS011;50685;53.346;-6.296;2023-04-15T02:51:18;5.13;;;2.15;;
64361;SDS011;50685;53.346;-6.296;2023-04-15T02:53:45;6.40;;;1.80;;
64361;SDS011;50685;53.346;-6.296;2023-04-15T02:56:11;8.30;;;1.98;;
64361;SDS011;50685;53.346;-6.296;2023-04-15T02:58:39;2.70;;;1.58;;
64361;SDS011;50685;53.346;-6.296;2023-04-15T03:01:05;8.02;;;1.60;;
64361;SDS011;50685;53.346;-6.296;2023-04-15T03:03:32;10.43;;;1.70;;
64361;SDS011;50685;53.346;-6.296;2023-04-15T03:05:58;9.85;;;3.50;;
64361;SDS011;50685;53.346;-6.296;2023-04-15T03:08:23;2.92;;;1.75;;
64361;SDS011;50685;53.346;-6.296;2023-04-15T03:10:49;12.45;;;1.75;;
64361;SDS011;50685;53.346;-6.296;2023-04-15T03:13:17;5.05;;;1.88;;
64361;SDS011;50685;53.346;-6.296;2023-04-15T03:15:43;8.63;;;1.92;;
64361;SDS011;50685;53.346;-6.296;2023-04-15T03:18:11;7.97;;;2.25;;
64361;SDS011;50685;53.346;-6.296;2023-04-15T03:20:36;13.48;;;1.95;;
64361;SDS011;50685;53.346;-6.296;2023-04-15T03:23:01;5.43;;;1.38;;
64361;SDS011;50685;53.346;-6.296;2023-04-15T03:25:27;10.38;;;3.38;;
64361;SDS011;50685;53.346;-6.296;2023-04-15T03:27:52;7.30;;;1.48;;
64361;SDS011;50685;53.346;-6.296;2023-04-15T03:30:18;4.68;;;1.50;;
64361;SDS011;50685;53.346;-6.296;2023-04-15T03:32:43;10.88;;;2.88;;
64361;SDS011;50685;53.346;-6.296;2023-04-15T03:35:09;7.68;;;2.00;;
64361;SDS011;50685;53.346;-6.296;2023-04-15T03:37:34;9.93;;;1.40;;
64361;SDS011;50685;53.346;-6.296;2023-04-15T03:40:00;6.35;;;1.95;;
64361;SDS011;50685;53.346;-6.296;2023-04-15T03:42:25;3.65;;;1.95;;
64361;SDS011;50685;53.346;-6.296;2023-04-15T03:44:51;7.10;;;1.42;;
64361;SDS011;50685;53.346;-6.296;2023-04-15T03:47:16;8.38;;;1.58;;
64361;SDS011;50685;53.346;-6.296;2023-04-15T03:49:42;8.63;;;1.45;;
64361;SDS011;50685;53.346;-6.296;2023-04-15T03:52:07;4.03;;;1.50;;
64361;SDS011;50685;53.346;-6.296;2023-04-15T03:54:33;13.93;;;2.08;;
64361;SDS011;50685;53.346;-6.296;2023-04-15T03:56:58;5.00;;;1.52;;
64361;SDS011;50685;53.346;-6.296;2023-04-15T03:59:24;4.80;;;1.77;;
64361;SDS011;50685;53.346;-6.296;2023-04-15T04:01:49;4.30;;;1.40;;
64361;SDS011;50685;53.346;-6.296;2023-04-15T04:04:15;5.18;;;1.67;;
64361;SDS011;50685;53.346;-6.296;2023-04-15T04:06:40;6.25;;;1.80;;
64361;SDS011;50685;53.346;-6.296;2023-04-15T04:09:06;8.10;;;1.88;;
64361;SDS011;50685;53.346;-6.296;2023-04-15T04:11:31;14.18;;;2.17;;
64361;SDS011;50685;53.346;-6.296;2023-04-15T04:13:57;6.93;;;2.22;;
64361;SDS011;50685;53.346;-6.296;2023-04-15T04:16:23;12.10;;;1.92;;
64361;SDS011;50685;53.346;-6.296;2023-04-15T04:18:48;7.65;;;2.08;;
64361;SDS011;50685;53.346;-6.296;2023-04-15T04:21:14;7.53;;;1.90;;
64361;SDS011;50685;53.346;-6.296;2023-04-15T04:23:39;17.02;;;2.53;;
64361;SDS011;50685;53.346;-6.296;2023-04-15T04:26:05;13.20;;;2.35;;
64361;SDS011;50685;53.346;-6.296;2023-04-15T04:28:30;7.38;;;1.95;;
64361;SDS011;50685;53.346;-6.296;2023-04-15T04:30:56;9.65;;;1.60;;
64361;SDS011;50685;53.346;-6.296;2023-04-15T04:33:21;6.18;;;1.80;;
64361;SDS011;50685;53.346;-6.296;2023-04-15T04:35:47;7.55;;;1.88;;
64361;SDS011;50685;53.346;-6.296;2023-04-15T04:38:12;5.13;;;1.73;;
64361;SDS011;50685;53.346;-6.296;2023-04-15T04:40:38;8.45;;;1.83;;
64361;SDS011;50685;53.346;-6.296;2023-04-15T04:43:03;6.93;;;1.83;;
64361;SDS011;50685;53.346;-6.296;2023-04-15T04:45:29;4.40;;;1.80;;
64361;SDS011;50685;53.346;-6.296;2023-04-15T04:47:54;7.72;;;1.75;;
64361;SDS011;50685;53.346;-6.296;2023-04-15T04:50:20;6.82;;;1.63;;
64361;SDS011;50685;53.346;-6.296;2023-04-15T04:52:45;6.35;;;1.98;;
64361;SDS011;50685;53.346;-6.296;2023-04-15T04:55:11;14.77;;;3.05;;
64361;SDS011;50685;53.346;-6.296;2023-04-15T04:57:37;10.13;;;1.90;;
64361;SDS011;50685;53.346;-6.296;2023-04-15T05:00:04;8.35;;;1.60;;
64361;SDS011;50685;53.346;-6.296;2023-04-15T05:02:32;5.20;;;1.80;;
64361;SDS011;50685;53.346;-6.296;2023-04-15T05:04:58;13.05;;;1.83;;
64361;SDS011;50685;53.346;-6.296;2023-04-15T05:07:23;9.63;;;2.10;;
64361;SDS011;50685;53.346;-6.296;2023-04-15T05:09:49;12.32;;;2.80;;
64361;SDS011;50685;53.346;-6.296;2023-04-15T05:12:14;11.23;;;2.08;;
64361;SDS011;50685;53.346;-6.296;2023-04-15T05:14:40;15.10;;;2.30;;
64361;SDS011;50685;53.346;-6.296;2023-04-15T05:17:06;6.68;;;1.73;;
64361;SDS011;50685;53.346;-6.296;2023-04-15T05:19:32;8.75;;;2.28;;
64361;SDS011;50685;53.346;-6.296;2023-04-15T05:21:57;6.32;;;1.90;;
64361;SDS011;50685;53.346;-6.296;2023-04-15T05:24:23;6.93;;;2.13;;
64361;SDS011;50685;53.346;-6.296;2023-04-15T05:26:49;14.43;;;2.72;;
64361;SDS011;50685;53.346;-6.296;2023-04-15T05:29:15;11.10;;;2.33;;
64361;SDS011;50685;53.346;-6.296;2023-04-15T05:31:40;6.82;;;2.10;;
64361;SDS011;50685;53.346;-6.296;2023-04-15T05:34:06;10.90;;;1.88;;
64361;SDS011;50685;53.346;-6.296;2023-04-15T05:36:32;7.15;;;2.08;;
64361;SDS011;50685;53.346;-6.296;2023-04-15T05:38:58;8.18;;;2.38;;
64361;SDS011;50685;53.346;-6.296;2023-04-15T05:41:23;11.88;;;2.38;;
64361;SDS011;50685;53.346;-6.296;2023-04-15T05:43:48;3.50;;;1.80;;
64361;SDS011;50685;53.346;-6.296;2023-04-15T05:46:15;8.88;;;2.17;;
64361;SDS011;50685;53.346;-6.296;2023-04-15T05:48:40;5.85;;;1.65;;
64361;SDS011;50685;53.346;-6.296;2023-04-15T05:51:06;15.27;;;2.33;;
64361;SDS011;50685;53.346;-6.296;2023-04-15T05:53:32;8.20;;;2.00;;
64361;SDS011;50685;53.346;-6.296;2023-04-15T05:55:57;13.15;;;1.88;;
64361;SDS011;50685;53.346;-6.296;2023-04-15T05:58:22;12.25;;;2.70;;
64361;SDS011;50685;53.346;-6.296;2023-04-15T06:00:48;5.25;;;1.92;;
64361;SDS011;50685;53.346;-6.296;2023-04-15T06:03:14;6.50;;;2.10;;
64361;SDS011;50685;53.346;-6.296;2023-04-15T06:05:40;6.57;;;2.90;;
64361;SDS011;50685;53.346;-6.296;2023-04-15T06:08:09;12.07;;;2.88;;
64361;SDS011;50685;53.346;-6.296;2023-04-15T06:10:35;7.07;;;2.35;;
64361;SDS011;50685;53.346;-6.296;2023-04-15T06:13:01;12.93;;;2.15;;
64361;SDS011;50685;53.346;-6.296;2023-04-15T06:15:28;11.23;;;1.88;;
64361;SDS011;50685;53.346;-6.296;2023-04-15T06:17:53;10.38;;;2.20;;
64361;SDS011;50685;53.346;-6.296;2023-04-15T06:20:19;11.95;;;2.30;;
64361;SDS011;50685;53.346;-6.296;2023-04-15T06:22:44;9.68;;;1.92;;
64361;SDS011;50685;53.346;-6.296;2023-04-15T06:25:10;15.40;;;2.60;;
64361;SDS011;50685;53.346;-6.296;2023-04-15T06:27:35;6.22;;;3.03;;
64361;SDS011;50685;53.346;-6.296;2023-04-15T06:30:01;8.05;;;2.35;;
64361;SDS011;50685;53.346;-6.296;2023-04-15T06:32:27;9.50;;;2.17;;
64361;SDS011;50685;53.346;-6.296;2023-04-15T06:34:52;7.45;;;2.47;;
64361;SDS011;50685;53.346;-6.296;2023-04-15T06:37:18;11.63;;;2.05;;
64361;SDS011;50685;53.346;-6.296;2023-04-15T06:39:43;15.25;;;4.60;;
64361;SDS011;50685;53.346;-6.296;2023-04-15T06:42:09;8.93;;;2.40;;
64361;SDS011;50685;53.346;-6.296;2023-04-15T06:44:35;4.35;;;1.48;;
64361;SDS011;50685;53.346;-6.296;2023-04-15T06:47:01;8.57;;;2.50;;
64361;SDS011;50685;53.346;-6.296;2023-04-15T06:49:27;8.45;;;2.22;;
64361;SDS011;50685;53.346;-6.296;2023-04-15T06:51:52;8.88;;;2.17;;
64361;SDS011;50685;53.346;-6.296;2023-04-15T06:54:18;9.48;;;2.38;;
64361;SDS011;50685;53.346;-6.296;2023-04-15T06:56:43;12.38;;;3.60;;
64361;SDS011;50685;53.346;-6.296;2023-04-15T06:59:09;10.02;;;2.10;;
64361;SDS011;50685;53.346;-6.296;2023-04-15T07:01:35;16.88;;;2.75;;
64361;SDS011;50685;53.346;-6.296;2023-04-15T07:04:00;10.43;;;2.60;;
64361;SDS011;50685;53.346;-6.296;2023-04-15T07:06:26;5.93;;;3.13;;
64361;SDS011;50685;53.346;-6.296;2023-04-15T07:08:52;2.75;;;1.60;;
64361;SDS011;50685;53.346;-6.296;2023-04-15T07:11:18;10.55;;;1.70;;
64361;SDS011;50685;53.346;-6.296;2023-04-15T07:13:45;4.90;;;2.17;;
64361;SDS011;50685;53.346;-6.296;2023-04-15T07:16:10;6.43;;;1.80;;
64361;SDS011;50685;53.346;-6.296;2023-04-15T07:18:36;4.45;;;2.13;;
64361;SDS011;50685;53.346;-6.296;2023-04-15T07:21:01;16.77;;;2.58;;
64361;SDS011;50685;53.346;-6.296;2023-04-15T07:23:27;8.48;;;2.35;;
64361;SDS011;50685;53.346;-6.296;2023-04-15T07:25:52;6.07;;;1.73;;
64361;SDS011;50685;53.346;-6.296;2023-04-15T07:28:18;4.65;;;1.80;;
64361;SDS011;50685;53.346;-6.296;2023-04-15T07:30:43;16.67;;;2.28;;
64361;SDS011;50685;53.346;-6.296;2023-04-15T07:33:09;8.25;;;1.88;;
64361;SDS011;50685;53.346;-6.296;2023-04-15T07:35:34;6.07;;;1.63;;
64361;SDS011;50685;53.346;-6.296;2023-04-15T07:38:00;8.02;;;2.17;;
64361;SDS011;50685;53.346;-6.296;2023-04-15T07:40:26;10.68;;;1.70;;
64361;SDS011;50685;53.346;-6.296;2023-04-15T07:42:52;8.95;;;1.73;;
64361;SDS011;50685;53.346;-6.296;2023-04-15T07:45:17;2.95;;;1.60;;
64361;SDS011;50685;53.346;-6.296;2023-04-15T07:47:43;5.35;;;1.58;;
64361;SDS011;50685;53.346;-6.296;2023-04-15T07:50:08;3.25;;;1.52;;
64361;SDS011;50685;53.346;-6.296;2023-04-15T07:52:35;4.43;;;1.45;;
64361;SDS011;50685;53.346;-6.296;2023-04-15T07:55:05;5.07;;;1.50;;
64361;SDS011;50685;53.346;-6.296;2023-04-15T07:57:33;9.80;;;2.55;;
64361;SDS011;50685;53.346;-6.296;2023-04-15T07:59:59;7.13;;;2.08;;
64361;SDS011;50685;53.346;-6.296;2023-04-15T08:02:25;5.50;;;1.80;;
64361;SDS011;50685;53.346;-6.296;2023-04-15T08:04:50;15.80;;;1.80;;
64361;SDS011;50685;53.346;-6.296;2023-04-15T08:07:17;5.78;;;1.52;;
64361;SDS011;50685;53.346;-6.296;2023-04-15T08:09:42;4.40;;;1.52;;
64361;SDS011;50685;53.346;-6.296;2023-04-15T08:12:08;5.65;;;1.50;;
64361;SDS011;50685;53.346;-6.296;2023-04-15T08:14:37;7.18;;;1.42;;
64361;SDS011;50685;53.346;-6.296;2023-04-15T08:17:03;10.85;;;1.92;;
64361;SDS011;50685;53.346;-6.296;2023-04-15T08:19:29;5.60;;;1.40;;
64361;SDS011;50685;53.346;-6.296;2023-04-15T08:21:55;5.93;;;1.02;;
64361;SDS011;50685;53.346;-6.296;2023-04-15T08:24:21;10.55;;;1.65;;
64361;SDS011;50685;53.346;-6.296;2023-04-15T08:26:48;4.50;;;1.77;;
64361;SDS011;50685;53.346;-6.296;2023-04-15T08:29:13;6.75;;;1.90;;
64361;SDS011;50685;53.346;-6.296;2023-04-15T08:31:39;13.70;;;2.08;;
64361;SDS011;50685;53.346;-6.296;2023-04-15T08:34:05;5.75;;;1.48;;
64361;SDS011;50685;53.346;-6.296;2023-04-15T08:36:30;7.50;;;1.60;;
64361;SDS011;50685;53.346;-6.296;2023-04-15T08:38:56;6.25;;;1.25;;
64361;SDS011;50685;53.346;-6.296;2023-04-15T08:41:23;10.70;;;2.05;;
64361;SDS011;50685;53.346;-6.296;2023-04-15T08:43:57;5.07;;;1.25;;
64361;SDS011;50685;53.346;-6.296;2023-04-15T08:46:25;5.35;;;1.40;;
64361;SDS011;50685;53.346;-6.296;2023-04-15T08:48:51;4.72;;;1.38;;
64361;SDS011;50685;53.346;-6.296;2023-04-15T08:51:21;3.60;;;1.48;;
64361;SDS011;50685;53.346;-6.296;2023-04-15T08:53:47;9.35;;;1.30;;
64361;SDS011;50685;53.346;-6.296;2023-04-15T08:56:14;5.13;;;1.10;;
64361;SDS011;50685;53.346;-6.296;2023-04-15T08:58:41;5.45;;;1.25;;
64361;SDS011;50685;53.346;-6.296;2023-04-15T09:01:11;5.43;;;1.25;;
64361;SDS011;50685;53.346;-6.296;2023-04-15T09:03:37;6.57;;;1.20;;
64361;SDS011;50685;53.346;-6.296;2023-04-15T09:06:03;9.50;;;1.50;;
64361;SDS011;50685;53.346;-6.296;2023-04-15T09:08:30;2.30;;;1.38;;
64361;SDS011;50685;53.346;-6.296;2023-04-15T09:10:56;5.32;;;1.10;;
64361;SDS011;50685;53.346;-6.296;2023-04-15T09:13:21;4.50;;;1.10;;
64361;SDS011;50685;53.346;-6.296;2023-04-15T09:15:47;4.28;;;0.93;;
64361;SDS011;50685;53.346;-6.296;2023-04-15T09:18:13;5.13;;;0.90;;
64361;SDS011;50685;53.346;-6.296;2023-04-15T09:20:52;4.53;;;1.05;;
64361;SDS011;50685;53.346;-6.296;2023-04-15T09:23:18;6.60;;;1.00;;
64361;SDS011;50685;53.346;-6.296;2023-04-15T09:25:43;2.00;;;0.80;;
64361;SDS011;50685;53.346;-6.296;2023-04-15T09:28:09;3.05;;;0.90;;
64361;SDS011;50685;53.346;-6.296;2023-04-15T09:30:35;3.00;;;0.73;;
64361;SDS011;50685;53.346;-6.296;2023-04-15T09:33:02;6.40;;;0.70;;
64361;SDS011;50685;53.346;-6.296;2023-04-15T09:35:32;2.58;;;0.77;;
64361;SDS011;50685;53.346;-6.296;2023-04-15T09:38:02;4.13;;;0.90;;
64361;SDS011;50685;53.346;-6.296;2023-04-15T09:40:30;4.68;;;0.75;;
64361;SDS011;50685;53.346;-6.296;2023-04-15T09:42:57;4.75;;;0.70;;
64361;SDS011;50685;53.346;-6.296;2023-04-15T09:45:23;1.55;;;0.77;;
64361;SDS011;50685;53.346;-6.296;2023-04-15T09:47:49;0.70;;;0.60;;
64361;SDS011;50685;53.346;-6.296;2023-04-15T09:50:16;3.35;;;0.80;;
64361;SDS011;50685;53.346;-6.296;2023-04-15T09:52:42;1.83;;;0.73;;
64361;SDS011;50685;53.346;-6.296;2023-04-15T09:55:08;2.97;;;0.60;;
64361;SDS011;50685;53.346;-6.296;2023-04-15T09:57:34;0.93;;;0.40;;
64361;SDS011;50685;53.346;-6.296;2023-04-15T10:00:04;0.65;;;0.45;;
64361;SDS011;50685;53.346;-6.296;2023-04-15T10:02:32;2.28;;;0.65;;
64361;SDS011;50685;53.346;-6.296;2023-04-15T10:04:58;4.03;;;0.82;;
64361;SDS011;50685;53.346;-6.296;2023-04-15T10:07:25;3.22;;;0.55;;
64361;SDS011;50685;53.346;-6.296;2023-04-15T10:09:51;1.95;;;0.45;;
64361;SDS011;50685;53.346;-6.296;2023-04-15T10:12:17;2.80;;;0.57;;
64361;SDS011;50685;53.346;-6.296;2023-04-15T10:14:43;6.40;;;1.05;;
64361;SDS011;50685;53.346;-6.296;2023-04-15T10:17:10;4.13;;;0.95;;
64361;SDS011;50685;53.346;-6.296;2023-04-15T10:19:39;2.15;;;0.70;;
64361;SDS011;50685;53.346;-6.296;2023-04-15T10:22:05;2.38;;;1.20;;
64361;SDS011;50685;53.346;-6.296;2023-04-15T10:24:32;3.33;;;0.82;;
64361;SDS011;50685;53.346;-6.296;2023-04-15T10:26:58;3.45;;;0.90;;
64361;SDS011;50685;53.346;-6.296;2023-04-15T10:29:24;1.92;;;0.75;;
64361;SDS011;50685;53.346;-6.296;2023-04-15T10:31:54;1.77;;;0.70;;
64361;SDS011;50685;53.346;-6.296;2023-04-15T10:34:20;1.73;;;0.65;;
64361;SDS011;50685;53.346;-6.296;2023-04-15T10:36:48;1.17;;;0.60;;
64361;SDS011;50685;53.346;-6.296;2023-04-15T10:42:08;1.13;;;0.30;;
64361;SDS011;50685;53.346;-6.296;2023-04-15T10:44:35;1.88;;;0.60;;
64361;SDS011;50685;53.346;-6.296;2023-04-15T10:47:15;2.47;;;0.50;;
64361;SDS011;50685;53.346;-6.296;2023-04-15T10:49:46;1.45;;;0.52;;
64361;SDS011;50685;53.346;-6.296;2023-04-15T10:52:15;2.53;;;0.90;;
64361;SDS011;50685;53.346;-6.296;2023-04-15T10:54:48;1.17;;;0.70;;
64361;SDS011;50685;53.346;-6.296;2023-04-15T10:57:21;1.45;;;0.60;;
64361;SDS011;50685;53.346;-6.296;2023-04-15T11:02:35;3.63;;;0.90;;
64361;SDS011;50685;53.346;-6.296;2023-04-15T11:05:05;1.75;;;0.60;;
64361;SDS011;50685;53.346;-6.296;2023-04-15T11:07:53;1.67;;;0.77;;
64361;SDS011;50685;53.346;-6.296;2023-04-15T11:12:51;2.83;;;0.82;;
64361;SDS011;50685;53.346;-6.296;2023-04-15T11:18:22;2.92;;;0.70;;
64361;SDS011;50685;53.346;-6.296;2023-04-15T11:20:50;1.48;;;0.82;;
64361;SDS011;50685;53.346;-6.296;2023-04-15T11:23:58;2.13;;;0.95;;
64361;SDS011;50685;53.346;-6.296;2023-04-15T11:26:10;0.40;;;0.40;;
64361;SDS011;50685;53.346;-6.296;2023-04-15T11:28:40;1.55;;;0.50;;
64361;SDS011;50685;53.346;-6.296;2023-04-15T11:31:14;2.72;;;0.57;;
64361;SDS011;50685;53.346;-6.296;2023-04-15T11:33:52;2.17;;;0.82;;
64361;SDS011;50685;53.346;-6.296;2023-04-15T11:36:18;4.20;;;0.80;;
64361;SDS011;50685;53.346;-6.296;2023-04-15T11:38:45;2.58;;;0.70;;
64361;SDS011;50685;53.346;-6.296;2023-04-15T11:41:11;1.67;;;0.60;;
64361;SDS011;50685;53.346;-6.296;2023-04-15T11:43:37;5.57;;;0.65;;
64361;SDS011;50685;53.346;-6.296;2023-04-15T11:46:02;2.80;;;0.80;;
64361;SDS011;50685;53.346;-6.296;2023-04-15T11:48:29;1.08;;;0.63;;
64361;SDS011;50685;53.346;-6.296;2023-04-15T11:51:07;2.03;;;0.80;;
64361;SDS011;50685;53.346;-6.296;2023-04-15T11:53:36;4.45;;;0.85;;
64361;SDS011;50685;53.346;-6.296;2023-04-15T11:56:02;2.28;;;0.73;;
64361;SDS011;50685;53.346;-6.296;2023-04-15T11:58:28;5.18;;;1.15;;
64361;SDS011;50685;53.346;-6.296;2023-04-15T12:00:57;3.30;;;0.82;;
64361;SDS011;50685;53.346;-6.296;2023-04-15T12:11:20;2.35;;;1.17;;
64361;SDS011;50685;53.346;-6.296;2023-04-15T12:14:05;1.70;;;0.90;;
64361;SDS011;50685;53.346;-6.296;2023-04-15T12:16:38;2.90;;;0.70;;
64361;SDS011;50685;53.346;-6.296;2023-04-15T12:19:10;2.63;;;0.77;;
64361;SDS011;50685;53.346;-6.296;2023-04-15T12:21:39;3.20;;;0.90;;
64361;SDS011;50685;53.346;-6.296;2023-04-15T12:24:08;3.45;;;1.10;;
64361;SDS011;50685;53.346;-6.296;2023-04-15T12:26:45;2.67;;;1.13;;
64361;SDS011;50685;53.346;-6.296;2023-04-15T12:29:13;3.85;;;1.10;;
64361;SDS011;50685;53.346;-6.296;2023-04-15T12:31:47;4.53;;;1.30;;
64361;SDS011;50685;53.346;-6.296;2023-04-15T12:34:14;1.25;;;1.02;;
64361;SDS011;50685;53.346;-6.296;2023-04-15T12:36:41;2.78;;;1.20;;
64361;SDS011;50685;53.346;-6.296;2023-04-15T12:39:07;2.60;;;1.20;;
64361;SDS011;50685;53.346;-6.296;2023-04-15T12:41:33;4.05;;;1.83;;
64361;SDS011;50685;53.346;-6.296;2023-04-15T12:43:59;7.45;;;1.70;;
64361;SDS011;50685;53.346;-6.296;2023-04-15T12:46:25;3.55;;;1.13;;
64361;SDS011;50685;53.346;-6.296;2023-04-15T12:48:51;5.60;;;1.30;;
64361;SDS011;50685;53.346;-6.296;2023-04-15T12:51:17;5.07;;;0.85;;
64361;SDS011;50685;53.346;-6.296;2023-04-15T12:53:43;3.28;;;0.77;;
64361;SDS011;50685;53.346;-6.296;2023-04-15T12:56:08;2.78;;;1.00;;
64361;SDS011;50685;53.346;-6.296;2023-04-15T12:58:34;3.30;;;1.10;;
64361;SDS011;50685;53.346;-6.296;2023-04-15T13:01:01;6.03;;;1.10;;
64361;SDS011;50685;53.346;-6.296;2023-04-15T13:03:27;1.73;;;0.85;;
64361;SDS011;50685;53.346;-6.296;2023-04-15T13:05:53;1.73;;;1.00;;
64361;SDS011;50685;53.346;-6.296;2023-04-15T13:08:18;1.63;;;0.70;;
64361;SDS011;50685;53.346;-6.296;2023-04-15T13:10:44;1.67;;;0.75;;
64361;SDS011;50685;53.346;-6.296;2023-04-15T13:13:10;5.10;;;1.02;;
64361;SDS011;50685;53.346;-6.296;2023-04-15T13:15:36;9.23;;;0.80;;
64361;SDS011;50685;53.346;-6.296;2023-04-15T13:18:02;2.35;;;0.80;;
64361;SDS011;50685;53.346;-6.296;2023-04-15T13:20:29;1.25;;;1.15;;
64361;SDS011;50685;53.346;-6.296;2023-04-15T13:22:55;3.65;;;0.68;;
64361;SDS011;50685;53.346;-6.296;2023-04-15T13:25:20;6.47;;;0.80;;
64361;SDS011;50685;53.346;-6.296;2023-04-15T13:27:49;4.10;;;1.02;;
64361;SDS011;50685;53.346;-6.296;2023-04-15T13:30:15;1.33;;;0.60;;
64361;SDS011;50685;53.346;-6.296;2023-04-15T13:32:41;2.38;;;0.70;;
64361;SDS011;50685;53.346;-6.296;2023-04-15T13:35:06;2.35;;;0.60;;
64361;SDS011;50685;53.346;-6.296;2023-04-15T13:37:32;1.20;;;0.63;;
64361;SDS011;50685;53.346;-6.296;2023-04-15T13:39:58;2.78;;;0.65;;
64361;SDS011;50685;53.346;-6.296;2023-04-15T13:42:23;3.50;;;0.60;;
64361;SDS011;50685;53.346;-6.296;2023-04-15T13:44:49;3.72;;;0.65;;
64361;SDS011;50685;53.346;-6.296;2023-04-15T13:47:15;2.38;;;0.70;;
64361;SDS011;50685;53.346;-6.296;2023-04-15T13:49:42;2.13;;;0.77;;
64361;SDS011;50685;53.346;-6.296;2023-04-15T13:52:08;4.03;;;1.02;;
64361;SDS011;50685;53.346;-6.296;2023-04-15T13:54:33;3.05;;;0.75;;
64361;SDS011;50685;53.346;-6.296;2023-04-15T13:56:58;1.05;;;0.50;;
64361;SDS011;50685;53.346;-6.296;2023-04-15T13:59:25;3.08;;;1.02;;
64361;SDS011;50685;53.346;-6.296;2023-04-15T14:01:51;1.85;;;0.50;;
64361;SDS011;50685;53.346;-6.296;2023-04-15T14:04:17;2.58;;;0.60;;
64361;SDS011;50685;53.346;-6.296;2023-04-15T14:06:42;7.40;;;0.63;;
64361;SDS011;50685;53.346;-6.296;2023-04-15T14:09:08;2.63;;;0.98;;
64361;SDS011;50685;53.346;-6.296;2023-04-15T14:11:34;4.35;;;1.25;;
64361;SDS011;50685;53.346;-6.296;2023-04-15T14:14:00;1.70;;;0.80;;
64361;SDS011;50685;53.346;-6.296;2023-04-15T14:16:27;10.38;;;3.47;;
64361;SDS011;50685;53.346;-6.296;2023-04-15T14:18:52;2.53;;;1.10;;
64361;SDS011;50685;53.346;-6.296;2023-04-15T14:21:18;13.77;;;2.38;;
64361;SDS011;50685;53.346;-6.296;2023-04-15T14:23:43;3.58;;;1.77;;
64361;SDS011;50685;53.346;-6.296;2023-04-15T14:26:09;4.95;;;0.95;;
64361;SDS011;50685;53.346;-6.296;2023-04-15T14:28:35;6.47;;;2.42;;
64361;SDS011;50685;53.346;-6.296;2023-04-15T14:31:03;5.88;;;0.93;;
64361;SDS011;50685;53.346;-6.296;2023-04-15T14:33:29;2.45;;;1.25;;
64361;SDS011;50685;53.346;-6.296;2023-04-15T14:35:55;4.10;;;1.55;;
64361;SDS011;50685;53.346;-6.296;2023-04-15T14:38:21;3.17;;;2.38;;
64361;SDS011;50685;53.346;-6.296;2023-04-15T14:40:46;2.97;;;1.08;;
64361;SDS011;50685;53.346;-6.296;2023-04-15T14:43:12;4.43;;;1.63;;
64361;SDS011;50685;53.346;-6.296;2023-04-15T14:45:38;3.20;;;1.02;;
64361;SDS011;50685;53.346;-6.296;2023-04-15T14:48:03;3.17;;;1.10;;